createdAt,value
2018-05-17T00:04:39.887Z,101247
2018-05-17T00:09:43.002Z,101247
2018-05-17T00:14:46.132Z,101243
2018-05-17T00:19:50.744Z,101247
2018-05-17T00:24:54.601Z,101259
2018-05-17T00:29:58.083Z,101254
2018-05-17T00:35:01.993Z,101256
2018-05-17T00:40:06.600Z,101264
2018-05-17T00:45:10.435Z,101269
2018-05-17T00:50:15.618Z,101273
2018-05-17T00:55:18.843Z,101273
2018-05-17T01:00:22.919Z,101272
2018-05-17T01:05:27.383Z,101263
2018-05-17T01:10:30.871Z,101266
2018-05-17T01:15:34.366Z,101272
2018-05-17T01:20:38.985Z,101278
2018-05-17T01:25:42.078Z,101282
2018-05-17T01:30:45.199Z,101284
2018-05-17T01:35:48.287Z,101280
2018-05-17T01:40:52.143Z,101279
2018-05-17T01:45:55.239Z,101281
2018-05-17T01:51:00.379Z,101286
2018-05-17T01:56:03.866Z,101294
2018-05-17T02:01:07.717Z,101298
2018-05-17T02:06:11.591Z,101307
2018-05-17T02:11:14.679Z,101305
2018-05-17T02:16:18.914Z,101308
2018-05-17T02:21:22.009Z,101320
2018-05-17T02:26:25.107Z,101321
2018-05-17T02:31:28.202Z,101326
2018-05-17T02:36:31.318Z,101335
2018-05-17T02:41:35.190Z,101329
2018-05-17T02:46:38.283Z,101326
2018-05-17T02:51:41.630Z,101335
2018-05-17T02:56:45.515Z,101329
2018-05-17T03:01:49.379Z,101327
2018-05-17T03:06:52.850Z,101331
2018-05-17T03:11:56.616Z,101334
2018-05-17T03:16:59.707Z,101341
2018-05-17T03:22:04.142Z,101345
2018-05-17T03:27:07.226Z,101351
2018-05-17T03:32:11.079Z,101362
2018-05-17T03:37:15.299Z,101365
2018-05-17T03:42:18.401Z,101363
2018-05-17T03:47:21.883Z,101364
2018-05-17T03:52:25.367Z,101364
2018-05-17T03:57:29.586Z,101362
2018-05-17T04:02:51.283Z,101373
2018-05-17T04:07:54.774Z,101375
2018-05-17T04:12:58.629Z,101379
2018-05-17T04:18:01.727Z,101390
2018-05-17T04:23:04.882Z,101386
2018-05-17T04:28:07.978Z,101388
2018-05-17T04:33:11.832Z,101389
2018-05-17T04:38:15.344Z,101391
2018-05-17T04:43:19.203Z,101394
2018-05-17T04:48:23.431Z,101396
2018-05-17T04:53:28.264Z,101393
2018-05-17T04:58:31.369Z,101397
2018-05-17T05:03:34.677Z,101395
2018-05-17T05:08:38.534Z,101393
2018-05-17T05:13:42.384Z,101401
2018-05-17T05:18:45.470Z,101401
2018-05-17T05:23:49.319Z,101402
2018-05-17T05:28:52.411Z,101411
2018-05-17T05:33:56.255Z,101413
2018-05-17T05:39:00.850Z,101413
2018-05-17T05:44:04.363Z,101415
2018-05-17T05:49:08.263Z,101425
2018-05-17T05:54:11.823Z,101426
2018-05-17T05:59:15.306Z,101423
2018-05-17T06:04:19.182Z,101421
2018-05-17T06:09:22.278Z,101428
2018-05-17T06:14:26.886Z,101431
2018-05-17T06:19:30.379Z,101430
2018-05-17T06:24:34.994Z,101436
2018-05-17T06:29:38.576Z,101437
2018-05-17T06:34:42.427Z,101444
2018-05-17T06:39:45.545Z,101449
2018-05-17T06:44:50.255Z,101450
2018-05-17T06:49:54.093Z,101451
2018-05-17T06:54:57.191Z,101450
2018-05-17T07:00:01.634Z,101454
2018-05-17T07:05:05.499Z,101452
2018-05-17T07:10:08.591Z,101450
2018-05-17T07:15:11.686Z,101449
2018-05-17T07:20:15.548Z,101452
2018-05-17T07:25:18.641Z,101446
2018-05-17T07:30:22.878Z,101453
2018-05-17T07:35:25.963Z,101459
2018-05-17T07:40:29.814Z,101463
2018-05-17T07:45:32.926Z,101471
2018-05-17T07:50:36.023Z,101463
2018-05-17T07:55:39.954Z,101461
2018-05-17T08:00:43.758Z,101465
2018-05-17T08:05:47.631Z,101461
2018-05-17T08:10:51.141Z,101460
2018-05-17T08:15:54.226Z,101468
2018-05-17T08:20:57.723Z,101468
2018-05-17T08:26:00.876Z,101477
2018-05-17T08:31:05.039Z,101467
2018-05-17T08:36:08.928Z,101464
2018-05-17T08:41:13.346Z,101457
2018-05-17T08:46:18.316Z,101484
2018-05-17T08:51:21.397Z,101482
2018-05-17T08:56:24.503Z,101480
2018-05-17T09:01:28.366Z,101482
2018-05-17T09:06:32.229Z,101487
2018-05-17T09:11:36.673Z,101495
2018-05-17T09:16:39.957Z,101487
2018-05-17T09:21:43.045Z,101491
2018-05-17T09:26:46.907Z,101481
2018-05-17T09:31:51.389Z,101488
2018-05-17T09:36:54.498Z,101494
2018-05-17T09:41:59.106Z,101480
2018-05-17T09:47:02.229Z,101480
2018-05-17T09:52:06.106Z,101471
2018-05-17T09:57:09.193Z,101476
2018-05-17T10:02:12.293Z,101474
2018-05-17T10:07:15.399Z,101468
2018-05-17T10:12:19.264Z,101468
2018-05-17T10:17:22.362Z,101473
2018-05-17T10:22:25.466Z,101466
2018-05-17T10:27:29.694Z,101468
2018-05-17T10:32:33.966Z,101464
2018-05-17T10:37:40.164Z,101458
2018-05-17T10:42:44.597Z,101467
2018-05-17T10:47:49.217Z,101462
2018-05-17T10:52:53.657Z,101455
2018-05-17T10:57:57.154Z,101450
2018-05-17T11:03:01.762Z,101447
2018-05-17T11:08:05.162Z,101448
2018-05-17T11:13:09.037Z,101448
2018-05-17T11:18:12.138Z,101444
2018-05-17T11:23:15.227Z,101438
2018-05-17T11:28:18.327Z,101438
2018-05-17T11:33:22.579Z,101437
2018-05-17T11:38:25.689Z,101436
2018-05-17T11:43:28.787Z,101438
2018-05-17T11:48:31.883Z,101429
2018-05-17T11:53:34.981Z,101424
2018-05-17T11:58:38.841Z,101425
2018-05-17T12:03:41.918Z,101426
2018-05-17T12:08:46.153Z,101427
2018-05-17T12:13:49.242Z,101426
2018-05-17T12:18:52.330Z,101424
2018-05-17T12:23:57.591Z,101419
2018-05-17T12:29:00.694Z,101416
2018-05-17T12:34:04.568Z,101410
2018-05-17T12:39:07.654Z,101414
2018-05-17T12:44:11.509Z,101410
2018-05-17T12:49:14.626Z,101421
2018-05-17T12:54:17.736Z,101415
2018-05-17T12:59:20.830Z,101409
2018-05-17T13:04:23.914Z,101404
2018-05-17T13:09:27.007Z,101399
2018-05-17T13:14:31.441Z,101394
2018-05-17T13:19:35.350Z,101384
2018-05-17T13:24:39.599Z,101390
2018-05-17T13:29:43.086Z,101383
2018-05-17T13:34:47.305Z,101382
2018-05-17T13:39:50.394Z,101374
2018-05-17T13:44:54.254Z,101371
2018-05-17T13:49:57.746Z,101377
2018-05-17T13:55:01.600Z,101376
2018-05-17T14:00:04.690Z,101362
2018-05-17T14:05:07.778Z,101365
2018-05-17T14:10:10.874Z,101353
2018-05-17T14:15:13.969Z,101350
2018-05-17T14:20:17.057Z,101358
2018-05-17T14:25:20.911Z,101354
2018-05-17T14:30:24.010Z,101358
2018-05-17T14:35:27.122Z,101348
2018-05-17T14:40:30.611Z,101345
2018-05-17T14:45:34.487Z,101347
2018-05-17T14:50:38.942Z,101348
2018-05-17T14:55:43.635Z,101352
2018-05-17T15:00:46.647Z,101356
2018-05-17T15:05:49.723Z,101351
2018-05-17T15:10:54.160Z,101341
2018-05-17T15:15:58.610Z,101347
2018-05-17T15:21:02.091Z,101332
2018-05-17T15:26:06.013Z,101326
2018-05-17T15:31:10.246Z,101326
2018-05-17T15:36:13.397Z,101323
2018-05-17T15:41:16.423Z,101322
2018-05-17T15:46:19.510Z,101322
2018-05-17T15:51:23.957Z,101324
2018-05-17T15:56:27.812Z,101325
2018-05-17T16:01:30.913Z,101323
2018-05-17T16:06:34.756Z,101313
2018-05-17T16:11:39.194Z,101314
2018-05-17T16:16:43.649Z,101309
2018-05-17T16:21:46.739Z,101311
2018-05-17T16:26:49.887Z,101310
2018-05-17T16:31:54.114Z,101310
2018-05-17T16:36:59.349Z,101309
2018-05-17T16:42:03.944Z,101302
2018-05-17T16:47:08.369Z,101313
2018-05-17T16:52:12.218Z,101309
2018-05-17T16:57:15.314Z,101313
2018-05-17T17:02:19.755Z,101306
2018-05-17T17:07:23.257Z,101302
2018-05-17T17:12:27.481Z,101310
2018-05-17T17:17:30.958Z,101307
2018-05-17T17:22:34.802Z,101309
2018-05-17T17:27:39.784Z,101311
2018-05-17T17:32:43.998Z,101311
2018-05-17T17:37:47.079Z,101317
2018-05-17T17:42:50.174Z,101320
2018-05-17T17:47:53.264Z,101314
2018-05-17T17:52:56.358Z,101318
2018-05-17T17:58:00.813Z,101320
2018-05-17T18:03:04.662Z,101326
2018-05-17T18:08:07.762Z,101332
2018-05-17T18:13:11.623Z,101333
2018-05-17T18:18:14.715Z,101330
2018-05-17T18:23:18.955Z,101336
2018-05-17T18:28:23.389Z,101337
2018-05-17T18:33:27.253Z,101343
2018-05-17T18:38:31.105Z,101345
2018-05-17T18:43:34.193Z,101354
2018-05-17T18:48:38.634Z,101353
2018-05-17T18:53:42.486Z,101357
2018-05-17T18:58:46.352Z,101362
2018-05-17T19:03:49.461Z,101368
2018-05-17T19:08:52.555Z,101374
2018-05-17T19:13:56.406Z,101383
2018-05-17T19:18:59.501Z,101392
2018-05-17T19:24:02.594Z,101398
2018-05-17T19:29:06.082Z,101400
2018-05-17T19:34:10.512Z,101406
2018-05-17T19:39:24.059Z,101411
2018-05-17T19:44:28.514Z,101421
2018-05-17T19:49:33.219Z,101427
2018-05-17T19:54:37.155Z,101433
2018-05-17T19:59:51.562Z,101438
2018-05-17T20:04:54.724Z,101442
2018-05-17T20:09:58.630Z,101445
2018-05-17T20:15:01.874Z,101457
2018-05-17T20:20:05.807Z,101466
2018-05-17T20:25:10.402Z,101465
2018-05-17T20:30:14.700Z,101462
2018-05-17T20:35:17.738Z,101464
2018-05-17T20:40:21.254Z,101463
2018-05-17T20:45:24.354Z,101470
2018-05-17T20:50:28.889Z,101465
2018-05-17T20:55:33.603Z,101467
2018-05-17T21:00:37.536Z,101469
2018-05-17T21:05:42.062Z,101476
2018-05-17T21:10:45.544Z,101476
2018-05-17T21:15:48.730Z,101480
2018-05-17T21:20:51.977Z,101485
2018-05-17T21:25:55.204Z,101482
2018-05-17T21:30:59.507Z,101482
2018-05-17T21:36:02.759Z,101490
2018-05-17T21:41:05.959Z,101486
2018-05-17T21:46:10.903Z,101498
2018-05-17T21:51:14.110Z,101507
2018-05-17T21:56:17.661Z,101504
2018-05-17T22:01:20.959Z,101505
2018-05-17T22:06:25.416Z,101504
2018-05-17T22:11:30.487Z,101509
2018-05-17T22:16:34.978Z,101510
2018-05-17T22:21:39.283Z,101512
2018-05-17T22:26:43.906Z,101516
2018-05-17T22:31:47.031Z,101511
2018-05-17T22:36:50.150Z,101514
2018-05-17T22:41:53.666Z,101526
2018-05-17T22:46:56.801Z,101528
2018-05-17T22:52:00.384Z,101528
2018-05-17T22:57:13.191Z,101520
2018-05-17T23:02:16.294Z,101519
2018-05-17T23:07:19.386Z,101514
2018-05-17T23:12:22.486Z,101511
2018-05-17T23:17:26.342Z,101512
2018-05-17T23:22:37.450Z,101514
2018-05-17T23:27:42.930Z,101513
2018-05-17T23:32:46.406Z,101517
2018-05-17T23:37:49.506Z,101515
2018-05-17T23:42:52.602Z,101519
2018-05-17T23:47:56.517Z,101513
2018-05-17T23:52:59.716Z,101515
2018-05-17T23:58:03.287Z,101509
